createdAt,value
2018-03-04T00:00:41.585Z,0.01
2018-03-04T00:01:41.605Z,-0.07
2018-03-04T00:02:41.597Z,0.00
2018-03-04T00:03:41.633Z,-0.21
2018-03-04T00:04:41.689Z,-0.21
2018-03-04T00:05:41.631Z,-0.11
2018-03-04T00:06:41.687Z,0.16
2018-03-04T00:07:41.653Z,0.28
2018-03-04T00:08:41.676Z,0.22
2018-03-04T00:09:41.696Z,0.23
2018-03-04T00:10:41.705Z,0.31
2018-03-04T00:11:41.700Z,0.44
2018-03-04T00:12:41.706Z,0.50
2018-03-04T00:13:41.723Z,0.40
2018-03-04T00:14:41.727Z,0.47
2018-03-04T00:15:41.764Z,0.28
2018-03-04T00:16:41.765Z,0.39
2018-03-04T00:17:41.774Z,0.29
2018-03-04T00:18:41.775Z,0.26
2018-03-04T00:19:41.806Z,0.37
2018-03-04T00:20:41.816Z,0.43
2018-03-04T00:21:41.830Z,0.44
2018-03-04T00:22:41.845Z,0.50
2018-03-04T00:23:41.844Z,0.43
2018-03-04T00:24:41.861Z,0.46
2018-03-04T00:25:41.848Z,0.50
2018-03-04T00:26:41.868Z,0.39
2018-03-04T00:27:41.914Z,0.49
2018-03-04T00:28:41.947Z,0.50
2018-03-04T00:29:41.902Z,0.55
2018-03-04T00:30:41.947Z,0.65
2018-03-04T00:31:41.926Z,0.43
2018-03-04T00:32:41.968Z,0.40
2018-03-04T00:33:41.971Z,0.52
2018-03-04T00:34:41.956Z,0.50
2018-03-04T00:35:41.988Z,0.47
2018-03-04T00:36:41.967Z,0.47
2018-03-04T00:37:42.047Z,0.46
2018-03-04T00:38:42.019Z,0.50
2018-03-04T00:39:42.007Z,0.34
2018-03-04T00:40:42.033Z,0.34
2018-03-04T00:41:42.050Z,0.31
2018-03-04T00:42:42.057Z,0.50
2018-03-04T00:43:42.117Z,0.49
2018-03-04T00:44:42.078Z,0.52
2018-03-04T00:45:42.096Z,0.65
2018-03-04T00:46:42.083Z,0.76
2018-03-04T00:47:42.092Z,0.68
2018-03-04T00:48:42.106Z,0.49
2018-03-04T00:49:42.111Z,0.52
2018-03-04T00:50:42.152Z,0.31
2018-03-04T00:51:42.149Z,0.37
2018-03-04T00:52:42.151Z,0.44
2018-03-04T00:53:42.171Z,0.52
2018-03-04T00:54:42.171Z,0.44
2018-03-04T00:55:42.221Z,0.32
2018-03-04T00:56:42.229Z,0.28
2018-03-04T00:57:42.227Z,0.18
2018-03-04T00:58:42.222Z,0.22
2018-03-04T00:59:42.227Z,0.26
2018-03-04T01:00:42.257Z,0.34
2018-03-04T01:01:42.257Z,0.39
2018-03-04T01:02:42.290Z,0.19
2018-03-04T01:03:42.272Z,0.08
2018-03-04T01:04:42.299Z,0.10
2018-03-04T01:05:42.324Z,0.11
2018-03-04T01:06:42.309Z,0.15
2018-03-04T01:07:42.329Z,0.19
2018-03-04T01:08:42.329Z,0.26
2018-03-04T01:09:42.330Z,0.34
2018-03-04T01:10:42.374Z,0.37
2018-03-04T01:11:42.383Z,0.34
2018-03-04T01:12:42.369Z,0.29
2018-03-04T01:13:42.389Z,0.46
2018-03-04T01:14:42.387Z,0.39
2018-03-04T01:15:42.400Z,0.26
2018-03-04T01:16:42.416Z,0.34
2018-03-04T01:17:42.436Z,0.31
2018-03-04T01:18:42.438Z,0.55
2018-03-04T01:19:42.458Z,0.37
2018-03-04T01:20:42.468Z,0.18
2018-03-04T01:21:42.539Z,0.12
2018-03-04T01:22:42.512Z,0.37
2018-03-04T01:23:42.490Z,0.37
2018-03-04T01:24:42.553Z,0.46
2018-03-04T01:25:42.512Z,0.32
2018-03-04T01:26:42.515Z,0.43
2018-03-04T01:27:42.528Z,0.25
2018-03-04T01:28:42.546Z,0.26
2018-03-04T01:29:42.547Z,0.36
2018-03-04T01:30:42.577Z,0.39
2018-03-04T01:31:42.577Z,0.44
2018-03-04T01:32:42.588Z,0.41
2018-03-04T01:33:42.600Z,0.37
2018-03-04T01:34:42.607Z,0.16
2018-03-04T01:35:42.611Z,0.04
2018-03-04T01:36:42.627Z,0.18
2018-03-04T01:37:42.656Z,0.28
2018-03-04T01:38:42.643Z,0.32
2018-03-04T01:39:42.659Z,0.34
2018-03-04T01:40:42.684Z,0.40
2018-03-04T01:41:42.688Z,0.25
2018-03-04T01:42:42.693Z,0.19
2018-03-04T01:43:42.708Z,0.16
2018-03-04T01:44:42.738Z,0.21
2018-03-04T01:45:42.719Z,0.21
2018-03-04T01:46:42.736Z,0.37
2018-03-04T01:47:42.781Z,0.23
2018-03-04T01:48:42.758Z,0.16
2018-03-04T01:49:42.771Z,0.15
2018-03-04T01:50:42.773Z,0.08
2018-03-04T01:51:42.801Z,0.05
2018-03-04T01:52:42.793Z,0.08
2018-03-04T01:53:42.811Z,-0.11
2018-03-04T01:54:42.819Z,0.01
2018-03-04T01:55:42.831Z,0.10
2018-03-04T01:56:42.844Z,0.18
2018-03-04T01:57:42.865Z,0.01
2018-03-04T01:58:42.878Z,0.03
2018-03-04T01:59:42.869Z,0.26
2018-03-04T02:00:42.935Z,0.25
2018-03-04T02:01:42.899Z,0.28
2018-03-04T02:02:42.914Z,0.37
2018-03-04T02:03:42.919Z,0.32
2018-03-04T02:04:42.927Z,0.29
2018-03-04T02:05:42.937Z,0.23
2018-03-04T02:06:42.947Z,0.08
2018-03-04T02:07:42.978Z,0.08
2018-03-04T02:08:42.978Z,0.15
2018-03-04T02:09:42.982Z,0.22
2018-03-04T02:10:43.003Z,0.11
2018-03-04T02:11:43.003Z,0.18
2018-03-04T02:12:43.019Z,0.25
2018-03-04T02:13:43.029Z,0.31
2018-03-04T02:14:43.044Z,0.10
2018-03-04T02:15:43.070Z,0.07
2018-03-04T02:16:43.056Z,0.18
2018-03-04T02:17:43.069Z,0.07
2018-03-04T02:18:43.082Z,0.08
2018-03-04T02:19:43.102Z,0.11
2018-03-04T02:20:43.105Z,0.05
2018-03-04T02:21:43.112Z,0.03
2018-03-04T02:22:43.130Z,0.10
2018-03-04T02:23:43.131Z,-0.18
2018-03-04T02:24:43.144Z,-0.34
2018-03-04T02:25:43.157Z,-0.31
2018-03-04T02:26:43.164Z,-0.23
2018-03-04T02:27:43.189Z,-0.07
2018-03-04T02:28:43.206Z,-0.10
2018-03-04T02:29:43.208Z,0.01
2018-03-04T02:30:43.224Z,0.01
2018-03-04T02:31:43.224Z,0.04
2018-03-04T02:32:43.230Z,0.07
2018-03-04T02:33:43.244Z,-0.10
2018-03-04T02:34:43.267Z,0.04
2018-03-04T02:35:43.266Z,-0.10
2018-03-04T02:36:43.287Z,-0.13
2018-03-04T02:37:43.293Z,0.00
2018-03-04T02:38:43.292Z,-0.06
2018-03-04T02:39:43.316Z,-0.06
2018-03-04T02:40:43.368Z,0.00
2018-03-04T02:41:43.329Z,-0.08
2018-03-04T02:42:43.336Z,-0.11
2018-03-04T02:43:43.352Z,-0.08
2018-03-04T02:44:43.360Z,-0.17
2018-03-04T02:45:43.384Z,-0.17
2018-03-04T02:46:43.395Z,-0.11
2018-03-04T02:47:43.401Z,-0.28
2018-03-04T02:48:43.402Z,-0.11
2018-03-04T02:49:43.414Z,-0.17
2018-03-04T02:50:43.440Z,-0.17
2018-03-04T02:51:43.438Z,-0.08
2018-03-04T02:52:43.455Z,-0.11
2018-03-04T02:53:43.463Z,-0.18
2018-03-04T02:54:43.476Z,-0.23
2018-03-04T02:55:43.479Z,-0.17
2018-03-04T02:56:43.488Z,-0.32
2018-03-04T02:57:43.500Z,-0.18
2018-03-04T02:58:43.511Z,-0.28
2018-03-04T02:59:43.517Z,-0.20
2018-03-04T03:00:43.562Z,-0.20
2018-03-04T03:01:43.562Z,-0.23
2018-03-04T03:02:43.549Z,-0.34
2018-03-04T03:03:43.566Z,-0.28
2018-03-04T03:04:43.573Z,-0.29
2018-03-04T03:05:43.590Z,-0.34
2018-03-04T03:06:43.601Z,-0.31
2018-03-04T03:07:43.599Z,-0.31
2018-03-04T03:08:43.622Z,-0.32
2018-03-04T03:09:43.626Z,-0.36
2018-03-04T03:10:43.636Z,-0.32
2018-03-04T03:11:43.642Z,-0.29
2018-03-04T03:12:43.667Z,-0.34
2018-03-04T03:13:43.693Z,-0.41
2018-03-04T03:14:43.679Z,-0.34
2018-03-04T03:15:43.693Z,-0.36
2018-03-04T03:16:43.709Z,-0.28
2018-03-04T03:17:43.713Z,-0.29
2018-03-04T03:18:43.724Z,-0.35
2018-03-04T03:19:43.734Z,-0.41
2018-03-04T03:20:43.745Z,-0.36
2018-03-04T03:21:43.761Z,-0.39
2018-03-04T03:22:43.761Z,-0.50
2018-03-04T03:23:43.791Z,-0.39
2018-03-04T03:24:43.781Z,-0.44
2018-03-04T03:25:43.815Z,-0.49
2018-03-04T03:26:43.806Z,-0.38
2018-03-04T03:27:43.816Z,-0.44
2018-03-04T03:28:43.825Z,-0.50
2018-03-04T03:29:43.844Z,-0.47
2018-03-04T03:30:43.850Z,-0.39
2018-03-04T03:31:43.881Z,-0.56
2018-03-04T03:32:43.873Z,-0.47
2018-03-04T03:33:43.875Z,-0.52
2018-03-04T03:34:43.886Z,-0.49
2018-03-04T03:35:43.909Z,-0.49
2018-03-04T03:36:43.920Z,-0.54
2018-03-04T03:37:43.922Z,-0.53
2018-03-04T03:38:43.924Z,-0.50
2018-03-04T03:39:43.938Z,-0.41
2018-03-04T03:40:43.955Z,-0.46
2018-03-04T03:41:43.954Z,-0.46
2018-03-04T03:42:43.973Z,-0.47
2018-03-04T03:43:44.000Z,-0.38
2018-03-04T03:44:43.996Z,-0.39
2018-03-04T03:45:44.001Z,-0.52
2018-03-04T03:46:44.017Z,-0.47
2018-03-04T03:47:44.017Z,-0.46
2018-03-04T03:48:44.030Z,-0.53
2018-03-04T03:49:44.053Z,-0.52
2018-03-04T03:50:44.080Z,-0.52
2018-03-04T03:51:44.059Z,-0.39
2018-03-04T03:52:44.071Z,-0.35
2018-03-04T03:53:44.098Z,-0.35
2018-03-04T03:54:44.102Z,-0.32
2018-03-04T03:55:44.111Z,-0.41
2018-03-04T03:56:44.116Z,-0.34
2018-03-04T03:57:44.135Z,-0.49
2018-03-04T03:58:44.152Z,-0.43
2018-03-04T03:59:44.168Z,-0.39
2018-03-04T04:00:44.168Z,-0.36
2018-03-04T04:01:44.175Z,-0.46
2018-03-04T04:02:44.192Z,-0.54
2018-03-04T04:03:44.191Z,-0.53
2018-03-04T04:04:44.196Z,-0.43
2018-03-04T04:05:44.215Z,-0.47
2018-03-04T04:06:44.219Z,-0.35
2018-03-04T04:07:44.239Z,-0.36
2018-03-04T04:08:44.262Z,-0.38
2018-03-04T04:09:44.253Z,-0.36
2018-03-04T04:10:44.265Z,-0.46
2018-03-04T04:11:44.279Z,-0.43
2018-03-04T04:12:44.281Z,-0.41
2018-03-04T04:13:44.291Z,-0.53
2018-03-04T04:14:44.304Z,-0.44
2018-03-04T04:15:44.310Z,-0.36
2018-03-04T04:16:44.322Z,-0.53
2018-03-04T04:17:44.348Z,-0.50
2018-03-04T04:18:44.349Z,-0.39
2018-03-04T04:19:44.352Z,-0.35
2018-03-04T04:20:44.374Z,-0.35
2018-03-04T04:21:44.403Z,-0.39
2018-03-04T04:22:44.387Z,-0.49
2018-03-04T04:23:44.396Z,-0.44
2018-03-04T04:24:44.410Z,-0.52
2018-03-04T04:25:44.418Z,-0.49
2018-03-04T04:26:44.430Z,-0.38
2018-03-04T04:27:44.440Z,-0.39
2018-03-04T04:28:44.471Z,-0.68
2018-03-04T04:29:44.458Z,-0.70
2018-03-04T04:30:44.480Z,-0.56
2018-03-04T04:31:44.496Z,-0.38
2018-03-04T04:32:44.488Z,-0.39
2018-03-04T04:33:44.509Z,-0.39
2018-03-04T04:34:44.510Z,-0.29
2018-03-04T04:35:44.519Z,-0.41
2018-03-04T04:36:44.531Z,-0.36
2018-03-04T04:37:44.535Z,-0.54
2018-03-04T04:38:44.557Z,-0.46
2018-03-04T04:39:44.578Z,-0.41
2018-03-04T04:40:44.570Z,-0.26
2018-03-04T04:41:44.584Z,-0.36
2018-03-04T04:42:44.606Z,-0.31
2018-03-04T04:43:44.606Z,-0.39
2018-03-04T04:44:44.628Z,-0.29
2018-03-04T04:45:44.621Z,-0.28
2018-03-04T04:46:44.639Z,-0.34
2018-03-04T04:47:44.661Z,-0.46
2018-03-04T04:48:44.652Z,-0.50
2018-03-04T04:49:44.695Z,-0.47
2018-03-04T04:50:44.678Z,-0.36
2018-03-04T04:51:44.687Z,-0.21
2018-03-04T04:52:44.696Z,-0.39
2018-03-04T04:53:44.713Z,-0.32
2018-03-04T04:54:44.733Z,-0.32
2018-03-04T04:55:44.731Z,-0.28
2018-03-04T04:56:44.741Z,-0.35
2018-03-04T04:57:44.762Z,-0.31
2018-03-04T04:58:44.769Z,-0.34
2018-03-04T04:59:44.769Z,-0.15
2018-03-04T05:00:44.788Z,-0.20
2018-03-04T05:01:44.806Z,-0.15
2018-03-04T05:02:44.801Z,-0.26
2018-03-04T05:03:44.814Z,-0.20
2018-03-04T05:04:44.824Z,-0.07
2018-03-04T05:05:44.833Z,0.00
2018-03-04T05:06:44.861Z,0.11
2018-03-04T05:07:44.851Z,0.18
2018-03-04T05:08:44.897Z,-0.06
2018-03-04T05:09:44.876Z,-0.07
2018-03-04T05:10:44.886Z,0.18
2018-03-04T05:11:44.901Z,0.05
2018-03-04T05:12:44.910Z,0.15
2018-03-04T05:13:44.911Z,0.19
2018-03-04T05:14:44.939Z,0.11
2018-03-04T05:15:44.973Z,0.18
2018-03-04T05:16:44.949Z,0.15
2018-03-04T05:17:44.977Z,0.21
2018-03-04T05:18:44.963Z,0.08
2018-03-04T05:19:44.980Z,0.15
2018-03-04T05:20:44.991Z,0.18
2018-03-04T05:21:45.010Z,0.21
2018-03-04T05:22:45.012Z,0.03
2018-03-04T05:23:45.027Z,0.00
2018-03-04T05:24:45.045Z,0.03
2018-03-04T05:25:45.069Z,0.08
2018-03-04T05:26:45.055Z,0.21
2018-03-04T05:27:45.068Z,0.41
2018-03-04T05:28:45.075Z,0.36
2018-03-04T05:29:45.089Z,0.41
2018-03-04T05:30:45.091Z,0.44
2018-03-04T05:31:45.103Z,0.47
2018-03-04T05:32:45.119Z,0.12
2018-03-04T05:33:45.127Z,0.29
2018-03-04T05:34:45.136Z,0.11
2018-03-04T05:35:45.157Z,0.18
2018-03-04T05:36:45.162Z,0.15
2018-03-04T05:37:45.173Z,0.31
2018-03-04T05:38:45.183Z,0.26
2018-03-04T05:39:45.190Z,0.28
2018-03-04T05:40:45.202Z,0.31
2018-03-04T05:41:45.229Z,0.39
2018-03-04T05:42:45.220Z,0.07
2018-03-04T05:43:45.236Z,0.26
2018-03-04T05:44:45.255Z,0.18
2018-03-04T05:45:45.256Z,0.28
2018-03-04T05:46:45.267Z,0.36
2018-03-04T05:47:45.278Z,0.23
2018-03-04T05:48:45.325Z,0.34
2018-03-04T05:49:45.305Z,0.28
2018-03-04T05:50:45.314Z,0.25
2018-03-04T05:51:45.322Z,0.21
2018-03-04T05:52:45.331Z,0.16
2018-03-04T05:53:45.360Z,0.19
2018-03-04T05:54:45.349Z,0.29
2018-03-04T05:55:45.362Z,0.10
2018-03-04T05:56:45.375Z,0.10
2018-03-04T05:57:45.393Z,0.10
2018-03-04T05:58:45.394Z,0.28
2018-03-04T05:59:45.410Z,0.40
2018-03-04T06:00:45.447Z,0.41
2018-03-04T06:01:45.437Z,0.41
2018-03-04T06:02:45.441Z,0.08
2018-03-04T06:03:45.457Z,0.40
2018-03-04T06:04:45.472Z,0.40
2018-03-04T06:05:45.475Z,0.46
2018-03-04T06:06:45.500Z,0.41
2018-03-04T06:07:45.505Z,0.41
2018-03-04T06:08:45.505Z,0.31
2018-03-04T06:09:45.521Z,0.29
2018-03-04T06:10:45.524Z,0.41
2018-03-04T06:11:45.536Z,0.59
2018-03-04T06:12:45.549Z,0.58
2018-03-04T06:13:45.575Z,0.65
2018-03-04T06:14:45.567Z,0.55
2018-03-04T06:15:45.585Z,0.43
2018-03-04T06:16:45.585Z,0.23
2018-03-04T06:17:45.604Z,0.43
2018-03-04T06:18:45.607Z,0.62
2018-03-04T06:19:45.634Z,0.59
2018-03-04T06:20:45.639Z,0.60
2018-03-04T06:21:45.647Z,0.52
2018-03-04T06:22:45.664Z,0.73
2018-03-04T06:23:45.675Z,0.83
2018-03-04T06:24:45.688Z,0.60
2018-03-04T06:25:45.686Z,0.74
2018-03-04T06:26:45.703Z,0.88
2018-03-04T06:27:45.713Z,0.87
2018-03-04T06:28:45.737Z,1.01
2018-03-04T06:29:45.730Z,0.99
2018-03-04T06:30:45.744Z,1.05
2018-03-04T06:31:45.768Z,1.02
2018-03-04T06:32:45.774Z,0.88
2018-03-04T06:33:45.775Z,0.83
2018-03-04T06:34:45.800Z,0.92
2018-03-04T06:35:45.796Z,0.95
2018-03-04T06:36:45.808Z,0.95
2018-03-04T06:37:45.817Z,0.94
2018-03-04T06:38:45.833Z,1.01
2018-03-04T06:39:45.896Z,1.17
2018-03-04T06:40:45.860Z,1.19
2018-03-04T06:41:45.873Z,1.12
2018-03-04T06:42:45.903Z,1.24
2018-03-04T06:43:45.890Z,1.28
2018-03-04T06:44:45.901Z,1.26
2018-03-04T06:45:45.915Z,1.42
2018-03-04T06:46:45.929Z,1.30
2018-03-04T06:47:45.947Z,1.16
2018-03-04T06:48:45.946Z,1.26
2018-03-04T06:49:45.990Z,1.44
2018-03-04T06:50:45.987Z,1.49
2018-03-04T06:51:45.977Z,1.38
2018-03-04T06:52:45.998Z,1.45
2018-03-04T06:53:46.050Z,1.37
2018-03-04T06:54:46.021Z,1.44
2018-03-04T06:55:46.023Z,1.55
2018-03-04T06:56:46.039Z,1.71
2018-03-04T06:57:46.042Z,1.66
2018-03-04T06:58:46.061Z,1.42
2018-03-04T06:59:46.066Z,1.34
2018-03-04T07:00:46.080Z,1.22
2018-03-04T07:01:46.135Z,1.20
2018-03-04T07:02:46.120Z,1.04
2018-03-04T07:03:46.119Z,1.30
2018-03-04T07:04:46.129Z,1.34
2018-03-04T07:05:46.138Z,1.32
2018-03-04T07:06:46.183Z,1.37
2018-03-04T07:07:46.162Z,1.20
2018-03-04T07:08:46.172Z,1.04
2018-03-04T07:09:46.183Z,1.28
2018-03-04T07:10:46.240Z,1.38
2018-03-04T07:11:46.213Z,1.20
2018-03-04T07:12:46.230Z,0.78
2018-03-04T07:13:46.237Z,1.06
2018-03-04T07:14:46.255Z,1.14
2018-03-04T07:15:46.260Z,1.24
2018-03-04T07:16:46.264Z,1.38
2018-03-04T07:17:46.277Z,1.53
2018-03-04T07:18:46.298Z,1.34
2018-03-04T07:19:46.303Z,1.31
2018-03-04T07:20:46.311Z,1.42
2018-03-04T07:21:46.319Z,1.38
2018-03-04T07:22:46.331Z,1.68
2018-03-04T07:23:46.354Z,1.48
2018-03-04T07:24:46.380Z,1.32
2018-03-04T07:25:46.372Z,1.49
2018-03-04T07:26:46.386Z,1.41
2018-03-04T07:27:46.442Z,1.48
2018-03-04T07:28:46.402Z,1.58
2018-03-04T07:29:46.408Z,1.84
2018-03-04T07:30:46.427Z,1.91
2018-03-04T07:31:46.448Z,2.13
2018-03-04T07:32:46.453Z,2.07
2018-03-04T07:33:46.488Z,1.92
2018-03-04T07:34:46.470Z,2.08
2018-03-04T07:35:46.507Z,2.14
2018-03-04T07:36:46.495Z,2.20
2018-03-04T07:37:46.508Z,2.10
2018-03-04T07:38:46.542Z,2.14
2018-03-04T07:39:46.532Z,2.22
2018-03-04T07:40:46.554Z,2.25
2018-03-04T07:41:46.556Z,2.32
2018-03-04T07:42:46.563Z,2.28
2018-03-04T07:43:46.583Z,2.24
2018-03-04T07:44:46.613Z,2.08
2018-03-04T07:45:46.605Z,2.06
2018-03-04T07:46:46.615Z,2.15
2018-03-04T07:47:46.661Z,2.14
2018-03-04T07:48:46.642Z,2.31
2018-03-04T07:49:46.661Z,2.43
2018-03-04T07:50:46.671Z,2.20
2018-03-04T07:51:46.693Z,2.22
2018-03-04T07:52:46.700Z,2.25
2018-03-04T07:53:46.695Z,1.95
2018-03-04T07:54:46.768Z,2.24
2018-03-04T07:55:46.733Z,2.43
2018-03-04T07:56:46.739Z,2.54
2018-03-04T07:57:46.758Z,2.51
2018-03-04T07:58:46.757Z,2.62
2018-03-04T07:59:46.782Z,2.62
2018-03-04T08:00:46.802Z,2.39
2018-03-04T08:01:46.827Z,2.49
2018-03-04T08:02:46.822Z,2.28
2018-03-04T08:03:46.868Z,2.39
2018-03-04T08:04:46.846Z,2.38
2018-03-04T08:05:46.907Z,2.39
2018-03-04T08:06:46.884Z,2.33
2018-03-04T08:07:46.888Z,2.20
2018-03-04T08:08:46.885Z,2.07
2018-03-04T08:09:46.893Z,2.11
2018-03-04T08:10:46.916Z,2.18
2018-03-04T08:11:46.920Z,2.29
2018-03-04T08:12:46.933Z,2.42
2018-03-04T08:13:46.939Z,2.60
2018-03-04T08:14:46.955Z,2.65
2018-03-04T08:15:46.971Z,2.74
2018-03-04T08:16:46.978Z,2.92
2018-03-04T08:17:47.008Z,3.03
2018-03-04T08:18:47.002Z,2.97
2018-03-04T08:19:47.020Z,3.07
2018-03-04T08:20:47.036Z,2.90
2018-03-04T08:21:47.041Z,2.90
2018-03-04T08:22:47.062Z,2.85
2018-03-04T08:23:47.099Z,2.97
2018-03-04T08:24:47.087Z,2.87
2018-03-04T08:25:47.090Z,2.86
2018-03-04T08:26:47.105Z,2.74
2018-03-04T08:27:47.129Z,2.53
2018-03-04T08:28:47.178Z,2.54
2018-03-04T08:29:47.143Z,2.53
2018-03-04T08:30:47.152Z,2.56
2018-03-04T08:31:47.173Z,2.68
2018-03-04T08:32:47.180Z,2.86
2018-03-04T08:33:47.202Z,2.87
2018-03-04T08:34:47.214Z,2.72
2018-03-04T08:35:47.232Z,2.74
2018-03-04T08:36:47.231Z,2.71
2018-03-04T08:37:47.257Z,2.51
2018-03-04T08:38:47.274Z,2.49
2018-03-04T08:39:47.272Z,2.56
2018-03-04T08:40:47.284Z,2.74
2018-03-04T08:41:47.288Z,2.28
2018-03-04T08:42:47.304Z,2.25
2018-03-04T08:43:47.318Z,2.36
2018-03-04T08:44:47.341Z,2.28
2018-03-04T08:45:47.355Z,2.47
2018-03-04T08:46:47.354Z,2.61
2018-03-04T08:47:47.368Z,2.79
2018-03-04T08:48:47.380Z,2.86
2018-03-04T08:49:47.396Z,2.77
2018-03-04T08:50:47.447Z,2.87
2018-03-04T08:51:47.420Z,2.89
2018-03-04T08:52:47.428Z,3.03
2018-03-04T08:53:47.440Z,3.16
2018-03-04T08:54:47.455Z,3.22
2018-03-04T08:55:47.462Z,3.21
2018-03-04T08:56:47.477Z,2.87
2018-03-04T08:57:47.500Z,2.97
2018-03-04T08:58:47.543Z,3.13
2018-03-04T08:59:47.517Z,3.25
2018-03-04T09:00:47.534Z,3.34
2018-03-04T09:01:47.544Z,3.53
2018-03-04T09:02:47.556Z,3.47
2018-03-04T09:03:47.579Z,3.13
2018-03-04T09:04:47.596Z,2.92
2018-03-04T09:05:47.599Z,3.01
2018-03-04T09:06:47.620Z,3.28
2018-03-04T09:07:47.617Z,3.36
2018-03-04T09:08:47.644Z,3.28
2018-03-04T09:09:47.644Z,3.37
2018-03-04T09:10:47.668Z,3.34
2018-03-04T09:11:47.666Z,3.26
2018-03-04T09:12:47.680Z,3.14
2018-03-04T09:13:47.706Z,3.14
2018-03-04T09:14:47.755Z,3.21
2018-03-04T09:15:47.727Z,2.92
2018-03-04T09:16:47.734Z,2.98
2018-03-04T09:17:47.787Z,3.04
2018-03-04T09:18:47.763Z,3.31
2018-03-04T09:19:47.776Z,3.28
2018-03-04T09:20:47.783Z,3.36
2018-03-04T09:21:47.796Z,3.58
2018-03-04T09:22:47.809Z,3.83
2018-03-04T09:23:47.823Z,3.59
2018-03-04T09:24:47.837Z,3.36
2018-03-04T09:25:47.859Z,3.34
2018-03-04T09:26:47.860Z,3.41
2018-03-04T09:27:47.884Z,3.51
2018-03-04T09:28:47.895Z,3.45
2018-03-04T09:29:47.919Z,3.36
2018-03-04T09:30:47.918Z,3.37
2018-03-04T09:31:47.927Z,3.45
2018-03-04T09:32:47.932Z,3.21
2018-03-04T09:33:47.950Z,2.95
2018-03-04T09:34:47.972Z,2.97
2018-03-04T09:35:47.987Z,2.86
2018-03-04T09:36:47.999Z,2.67
2018-03-04T09:37:48.015Z,2.67
2018-03-04T09:38:48.031Z,2.75
2018-03-04T09:39:48.026Z,2.56
2018-03-04T09:40:48.045Z,2.83
2018-03-04T09:41:48.056Z,3.05
2018-03-04T09:42:48.068Z,3.03
2018-03-04T09:43:48.100Z,2.85
2018-03-04T09:44:48.102Z,2.90
2018-03-04T09:45:48.103Z,2.87
2018-03-04T09:46:48.120Z,2.87
2018-03-04T09:47:48.140Z,3.00
2018-03-04T09:48:48.156Z,3.18
2018-03-04T09:49:48.165Z,3.22
2018-03-04T09:50:48.172Z,2.89
2018-03-04T09:51:48.186Z,3.26
2018-03-04T09:52:48.199Z,3.50
2018-03-04T09:53:48.214Z,3.50
2018-03-04T09:54:48.227Z,3.28
2018-03-04T09:55:48.240Z,3.34
2018-03-04T09:56:48.280Z,3.76
2018-03-04T09:57:48.259Z,3.83
2018-03-04T09:58:48.284Z,3.69
2018-03-04T09:59:48.285Z,3.73
2018-03-04T10:00:48.299Z,3.92
2018-03-04T10:01:48.311Z,3.84
2018-03-04T10:02:48.338Z,3.70
2018-03-04T10:03:48.335Z,4.17
2018-03-04T10:04:48.351Z,4.32
2018-03-04T10:05:48.357Z,4.14
2018-03-04T10:06:48.375Z,4.17
2018-03-04T10:07:48.398Z,4.38
2018-03-04T10:08:48.434Z,4.04
2018-03-04T10:09:48.415Z,4.14
2018-03-04T10:10:48.440Z,4.14
2018-03-04T10:11:48.444Z,4.31
2018-03-04T10:12:48.461Z,3.99
2018-03-04T10:13:48.475Z,4.28
2018-03-04T10:14:48.492Z,4.44
2018-03-04T10:15:48.508Z,4.70
2018-03-04T10:16:48.505Z,4.89
2018-03-04T10:17:48.557Z,4.80
2018-03-04T10:18:48.575Z,4.73
2018-03-04T10:19:48.556Z,4.44
2018-03-04T10:20:48.575Z,4.44
2018-03-04T10:21:48.586Z,4.53
2018-03-04T10:22:48.595Z,4.78
2018-03-04T10:23:48.614Z,4.68
2018-03-04T10:24:48.623Z,5.05
2018-03-04T10:25:48.689Z,5.21
2018-03-04T10:26:48.649Z,5.73
2018-03-04T10:27:48.674Z,5.68
2018-03-04T10:28:48.720Z,5.65
2018-03-04T10:29:48.699Z,5.54
2018-03-04T10:30:48.711Z,4.50
2018-03-04T10:31:48.749Z,4.45
2018-03-04T10:32:48.741Z,4.87
2018-03-04T10:33:48.753Z,5.59
2018-03-04T10:34:48.786Z,5.57
2018-03-04T10:35:48.792Z,5.29
2018-03-04T10:36:48.831Z,5.41
2018-03-04T10:37:48.811Z,5.47
2018-03-04T10:38:48.827Z,5.51
2018-03-04T10:39:48.844Z,5.53
2018-03-04T10:40:48.876Z,5.57
2018-03-04T10:41:48.872Z,5.97
2018-03-04T10:42:48.890Z,5.93
2018-03-04T10:43:48.941Z,5.80
2018-03-04T10:44:48.913Z,5.56
2018-03-04T10:45:48.928Z,5.75
2018-03-04T10:46:48.957Z,5.69
2018-03-04T10:47:48.957Z,5.99
2018-03-04T10:48:48.990Z,5.72
2018-03-04T10:49:48.992Z,5.32
2018-03-04T10:50:49.004Z,5.46
2018-03-04T10:51:49.009Z,5.28
2018-03-04T10:52:49.052Z,5.35
2018-03-04T10:53:49.045Z,5.30
2018-03-04T10:54:49.059Z,5.50
2018-03-04T10:55:49.081Z,5.76
2018-03-04T10:56:49.095Z,5.48
2018-03-04T10:57:49.114Z,5.59
2018-03-04T10:58:49.120Z,5.82
2018-03-04T10:59:49.129Z,5.51
2018-03-04T11:00:49.160Z,5.57
2018-03-04T11:01:49.165Z,5.51
2018-03-04T11:02:49.177Z,5.26
2018-03-04T11:03:49.189Z,5.36
2018-03-04T11:04:49.209Z,5.59
2018-03-04T11:05:49.216Z,5.56
2018-03-04T11:06:49.234Z,5.75
2018-03-04T11:07:49.247Z,5.83
2018-03-04T11:08:49.268Z,5.66
2018-03-04T11:09:49.290Z,5.15
2018-03-04T11:10:49.295Z,5.38
2018-03-04T11:11:49.313Z,5.61
2018-03-04T11:12:49.333Z,5.83
2018-03-04T11:13:49.342Z,5.98
2018-03-04T11:14:49.356Z,5.99
2018-03-04T11:15:49.368Z,5.82
2018-03-04T11:16:49.384Z,5.72
2018-03-04T11:17:49.400Z,5.89
2018-03-04T11:18:49.412Z,5.86
2018-03-04T11:19:49.437Z,6.14
2018-03-04T11:20:49.451Z,6.07
2018-03-04T11:21:49.455Z,6.16
2018-03-04T11:22:49.477Z,6.14
2018-03-04T11:23:49.486Z,6.39
2018-03-04T11:24:49.499Z,6.49
2018-03-04T11:25:49.523Z,6.41
2018-03-04T11:26:49.525Z,6.70
2018-03-04T11:27:49.541Z,7.10
2018-03-04T11:28:49.577Z,7.20
2018-03-04T11:29:49.591Z,7.31
2018-03-04T11:30:49.582Z,7.32
2018-03-04T11:31:49.602Z,6.84
2018-03-04T11:32:49.619Z,6.74
2018-03-04T11:33:49.645Z,7.15
2018-03-04T11:34:49.653Z,7.32
2018-03-04T11:35:49.686Z,7.47
2018-03-04T11:36:49.677Z,7.36
2018-03-04T11:37:49.693Z,7.33
2018-03-04T11:38:49.709Z,7.15
2018-03-04T11:39:49.726Z,7.06
2018-03-04T11:40:49.744Z,6.63
2018-03-04T11:41:49.772Z,6.82
2018-03-04T11:42:49.781Z,6.81
2018-03-04T11:43:49.797Z,6.84
2018-03-04T11:44:49.805Z,6.88
2018-03-04T11:45:49.820Z,6.79
2018-03-04T11:46:49.833Z,6.79
2018-03-04T11:47:49.871Z,7.38
2018-03-04T11:48:49.862Z,7.42
2018-03-04T11:49:49.879Z,7.77
2018-03-04T11:50:49.895Z,7.72
2018-03-04T11:51:49.915Z,8.16
2018-03-04T11:52:49.940Z,8.00
2018-03-04T11:53:49.944Z,8.01
2018-03-04T11:54:49.971Z,8.37
2018-03-04T11:55:49.991Z,8.12
2018-03-04T11:56:49.987Z,8.05
2018-03-04T11:57:50.021Z,7.90
2018-03-04T11:58:50.048Z,8.05
2018-03-04T11:59:50.049Z,8.16
2018-03-04T12:00:50.078Z,8.15
2018-03-04T12:01:50.075Z,7.50
2018-03-04T12:02:50.095Z,6.46
2018-03-04T12:03:50.117Z,6.62
2018-03-04T12:04:50.119Z,6.89
2018-03-04T12:05:50.139Z,6.96
2018-03-04T12:06:50.206Z,7.15
2018-03-04T12:07:50.175Z,7.51
2018-03-04T12:08:50.182Z,6.85
2018-03-04T12:09:50.209Z,7.03
2018-03-04T12:10:50.211Z,6.93
2018-03-04T12:11:50.235Z,7.25
2018-03-04T12:12:50.252Z,7.00
2018-03-04T12:13:50.257Z,6.82
2018-03-04T12:14:50.281Z,6.66
2018-03-04T12:15:50.319Z,6.52
2018-03-04T12:16:50.312Z,6.51
2018-03-04T12:17:50.337Z,6.72
2018-03-04T12:18:50.335Z,6.78
2018-03-04T12:19:50.349Z,6.77
2018-03-04T12:20:50.385Z,6.70
2018-03-04T12:21:50.393Z,6.92
2018-03-04T12:22:50.404Z,7.25
2018-03-04T12:23:50.414Z,7.48
2018-03-04T12:24:50.435Z,7.32
2018-03-04T12:25:50.453Z,7.39
2018-03-04T12:26:50.512Z,7.14
2018-03-04T12:27:50.477Z,7.47
2018-03-04T12:28:50.490Z,7.33
2018-03-04T12:29:50.517Z,7.40
2018-03-04T12:30:50.529Z,7.72
2018-03-04T12:31:50.539Z,7.73
2018-03-04T12:32:50.592Z,7.94
2018-03-04T12:33:50.568Z,7.90
2018-03-04T12:34:50.582Z,7.82
2018-03-04T12:35:50.606Z,7.63
2018-03-04T12:36:50.620Z,7.15
2018-03-04T12:37:50.635Z,7.20
2018-03-04T12:38:50.650Z,6.92
2018-03-04T12:39:50.660Z,6.82
2018-03-04T12:40:50.671Z,6.96
2018-03-04T12:41:50.705Z,7.18
2018-03-04T12:42:50.704Z,7.20
2018-03-04T12:43:50.750Z,7.38
2018-03-04T12:44:50.740Z,7.36
2018-03-04T12:45:50.760Z,7.61
2018-03-04T12:46:50.768Z,7.58
2018-03-04T12:47:50.798Z,7.88
2018-03-04T12:48:50.806Z,7.69
2018-03-04T12:49:50.825Z,7.39
2018-03-04T12:50:50.835Z,7.18
2018-03-04T12:51:50.842Z,7.18
2018-03-04T12:52:50.866Z,7.29
2018-03-04T12:53:50.895Z,7.32
2018-03-04T12:54:50.899Z,7.35
2018-03-04T12:55:50.913Z,7.47
2018-03-04T12:56:50.926Z,7.36
2018-03-04T12:57:50.932Z,7.15
2018-03-04T12:58:50.968Z,7.31
2018-03-04T12:59:50.966Z,7.51
2018-03-04T13:00:50.990Z,7.42
2018-03-04T13:01:50.998Z,7.47
2018-03-04T13:02:51.017Z,7.53
2018-03-04T13:03:51.048Z,7.54
2018-03-04T13:04:51.059Z,7.38
2018-03-04T13:05:51.063Z,7.15
2018-03-04T13:06:51.158Z,7.35
2018-03-04T13:07:51.093Z,7.29
2018-03-04T13:08:51.110Z,7.48
2018-03-04T13:09:51.165Z,7.31
2018-03-04T13:10:51.146Z,7.47
2018-03-04T13:11:51.157Z,7.38
2018-03-04T13:12:51.171Z,7.38
2018-03-04T13:13:51.185Z,7.51